Time;durP1;ratioP1;P1;durP2;ratioP2;P2;SDS_P1;SDS_P2;PMS_P1;PMS_P2;Temp;Humidity;BMP_temperature;BMP_pressure;BME280_temperature;BME280_humidity;BME280_pressure;Samples;Min_cycle;Max_cycle;Signal;HPM_P1;HPM_P2
2022/07/10 00:00:20;;;;;;;0.88;0.80;;;23.50;61.20;;;;;;5133768;27;20055;-74
2022/07/10 00:02:46;;;;;;;0.80;0.80;;;23.40;60.90;;;;;;5133795;27;20015;-74
2022/07/10 00:05:12;;;;;;;2.38;1.90;;;23.40;60.70;;;;;;5115428;28;20026;-74
2022/07/10 00:07:41;;;;;;;2.38;0.93;;;23.40;60.80;;;;;;5133675;28;20023;-74
2022/07/10 00:10:07;;;;;;;1.63;1.00;;;23.40;60.80;;;;;;5133100;27;20015;-75
2022/07/10 00:12:33;;;;;;;1.35;0.88;;;23.30;60.90;;;;;;5133830;28;20020;-74
2022/07/10 00:14:59;;;;;;;5.25;1.00;;;23.30;61.20;;;;;;5133627;28;20363;-74
2022/07/10 00:17:25;;;;;;;0.88;0.88;;;23.20;61.20;;;;;;5133795;28;20088;-75
2022/07/10 00:19:51;;;;;;;1.05;0.85;;;23.20;61.20;;;;;;5115076;28;20177;-75
2022/07/10 00:22:16;;;;;;;1.60;1.00;;;23.20;61.40;;;;;;5133626;28;20027;-74
2022/07/10 00:24:46;;;;;;;1.10;0.95;;;23.20;61.20;;;;;;5114998;28;20030;-74
2022/07/10 00:27:12;;;;;;;1.20;0.90;;;23.10;61.10;;;;;;5133606;28;20026;-75
2022/07/10 00:29:38;;;;;;;2.13;0.80;;;23.20;61.40;;;;;;5133826;28;20024;-74
2022/07/10 00:32:04;;;;;;;0.70;0.70;;;23.00;61.80;;;;;;5133557;28;20019;-74
2022/07/10 00:34:30;;;;;;;0.75;0.75;;;23.00;61.70;;;;;;5133634;28;20021;-74
2022/07/10 00:36:56;;;;;;;0.60;0.60;;;23.10;61.90;;;;;;5133473;28;20019;-75
2022/07/10 00:39:22;;;;;;;1.83;0.70;;;23.10;61.70;;;;;;5133290;28;20024;-74
2022/07/10 00:41:47;;;;;;;0.95;0.60;;;23.10;61.60;;;;;;5133469;28;20104;-74
2022/07/10 00:44:13;;;;;;;0.70;0.70;;;22.90;61.90;;;;;;5133701;28;20024;-74
2022/07/10 00:46:40;;;;;;;1.33;0.80;;;22.90;63.00;;;;;;5133534;28;20032;-75
2022/07/10 00:49:06;;;;;;;5.40;0.90;;;22.80;62.20;;;;;;5133144;28;20047;-74
2022/07/10 00:51:33;;;;;;;2.20;0.90;;;22.80;62.30;;;;;;5133444;28;20493;-75
2022/07/10 00:54:00;;;;;;;1.35;0.70;;;22.70;62.20;;;;;;5115009;28;20023;-74
2022/07/10 00:56:27;;;;;;;1.08;0.80;;;22.80;62.40;;;;;;5133389;28;20015;-75
2022/07/10 00:58:54;;;;;;;0.98;0.98;;;22.90;62.20;;;;;;5114722;28;20053;-74
2022/07/10 01:01:22;;;;;;;1.17;0.88;;;22.80;62.10;;;;;;5133494;28;20019;-74
2022/07/10 01:03:48;;;;;;;0.68;0.68;;;22.90;62.10;;;;;;5133455;28;20020;-74
2022/07/10 01:06:15;;;;;;;0.93;0.65;;;22.90;62.00;;;;;;5133094;28;20023;-74
2022/07/10 01:08:43;;;;;;;1.17;1.17;;;23.00;61.80;;;;;;5133296;28;20437;-74
2022/07/10 01:11:13;;;;;;;0.80;0.80;;;23.10;61.70;;;;;;5114795;28;20463;-74
2022/07/10 01:13:39;;;;;;;0.95;0.80;;;23.10;61.60;;;;;;5133196;28;20023;-74
2022/07/10 01:16:05;;;;;;;0.80;0.70;;;23.10;61.50;;;;;;5133170;28;20023;-74
2022/07/10 01:18:31;;;;;;;1.10;1.00;;;23.20;61.50;;;;;;5132910;28;20531;-74
2022/07/10 01:20:56;;;;;;;1.70;0.70;;;23.20;61.50;;;;;;5133604;27;20106;-75
2022/07/10 01:23:23;;;;;;;1.10;0.70;;;23.20;61.40;;;;;;5136805;27;20102;-74
2022/07/10 01:25:50;;;;;;;1.98;0.88;;;23.20;61.50;;;;;;5118156;27;20027;-74
2022/07/10 01:28:21;;;;;;;0.75;0.70;;;23.20;61.40;;;;;;5118136;27;20103;-74
2022/07/10 01:30:47;;;;;;;0.98;0.98;;;23.20;61.60;;;;;;5136792;27;20020;-74
2022/07/10 01:33:13;;;;;;;5.43;1.15;;;23.20;61.80;;;;;;5136623;27;20465;-74
2022/07/10 01:35:39;;;;;;;1.42;1.08;;;23.10;61.80;;;;;;5118282;27;20080;-74
2022/07/10 01:38:05;;;;;;;0.80;0.80;;;23.20;61.80;;;;;;5135881;27;20019;-74
2022/07/10 01:40:31;;;;;;;1.13;0.90;;;23.20;61.90;;;;;;5136238;27;20020;-74
2022/07/10 01:42:56;;;;;;;1.15;0.85;;;23.20;62.00;;;;;;5118621;27;20027;-74
2022/07/10 01:45:22;;;;;;;2.00;0.98;;;23.20;62.20;;;;;;5135932;27;20046;-74
2022/07/10 01:47:48;;;;;;;0.70;0.70;;;23.20;62.20;;;;;;5136375;27;20393;-74
2022/07/10 01:50:14;;;;;;;0.98;0.80;;;23.10;62.40;;;;;;5136201;27;20019;-74
2022/07/10 01:52:40;;;;;;;1.23;0.70;;;23.00;62.30;;;;;;5136292;27;20031;-74
2022/07/10 01:55:06;;;;;;;1.17;1.00;;;23.10;62.50;;;;;;5136151;27;20390;-74
2022/07/10 01:57:32;;;;;;;2.15;0.70;;;23.10;62.30;;;;;;5136026;27;20038;-75
2022/07/10 01:59:58;;;;;;;2.80;0.82;;;23.10;62.60;;;;;;5117561;27;20023;-74
2022/07/10 02:02:24;;;;;;;0.77;0.77;;;23.10;62.70;;;;;;5136158;27;20386;-74
2022/07/10 02:04:49;;;;;;;0.93;0.80;;;23.00;62.90;;;;;;5136062;27;20015;-74
2022/07/10 02:07:17;;;;;;;0.77;0.77;;;23.00;62.90;;;;;;5135975;27;20019;-74
2022/07/10 02:09:43;;;;;;;2.50;1.00;;;23.00;63.20;;;;;;5135771;27;20027;-75
2022/07/10 02:12:11;;;;;;;4.38;1.10;;;22.90;63.30;;;;;;5135803;27;20023;-75
2022/07/10 02:14:37;;;;;;;1.55;0.90;;;22.90;63.30;;;;;;5135866;27;20019;-75
2022/07/10 02:17:04;;;;;;;0.98;0.77;;;22.80;63.50;;;;;;5117323;27;20481;-74
2022/07/10 02:19:30;;;;;;;0.70;0.70;;;22.80;63.60;;;;;;5135706;27;20020;-74
2022/07/10 02:21:55;;;;;;;0.98;0.98;;;22.70;63.80;;;;;;5117287;27;20023;-75
2022/07/10 02:24:21;;;;;;;2.65;0.93;;;22.80;63.80;;;;;;5135476;27;20070;-74
2022/07/10 02:26:47;;;;;;;1.27;0.73;;;22.80;64.00;;;;;;5116644;27;20110;-74
2022/07/10 02:29:13;;;;;;;0.88;0.88;;;22.80;64.10;;;;;;5135225;27;20023;-74
2022/07/10 02:31:40;;;;;;;1.95;0.93;;;22.70;64.00;;;;;;5119681;27;20471;-74
2022/07/10 02:34:10;;;;;;;1.20;0.70;;;22.60;64.20;;;;;;5114551;28;20481;-74
2022/07/10 02:36:37;;;;;;;0.80;0.70;;;22.60;64.60;;;;;;5114905;28;20427;-74
2022/07/10 02:39:04;;;;;;;0.52;0.52;;;22.50;65.00;;;;;;5114539;28;20030;-74
2022/07/10 02:41:30;;;;;;;1.00;1.00;;;22.50;65.00;;;;;;5125864;27;20707;-75
2022/07/10 02:43:56;;;;;;;2.65;0.98;;;22.50;64.90;;;;;;5127726;27;20024;-74
2022/07/10 02:46:22;;;;;;;1.20;0.80;;;22.50;64.80;;;;;;5096407;28;20027;-74
2022/07/10 02:48:47;;;;;;;1.17;1.08;;;22.60;64.70;;;;;;5114399;28;20027;-74
2022/07/10 02:51:13;;;;;;;1.10;0.95;;;22.60;64.40;;;;;;5114578;28;20033;-74
2022/07/10 02:53:39;;;;;;;1.67;0.70;;;22.60;64.40;;;;;;5114431;28;20568;-74
2022/07/10 02:56:05;;;;;;;0.82;0.80;;;22.50;64.50;;;;;;5104473;27;20383;-74
2022/07/10 02:58:31;;;;;;;1.38;1.10;;;22.50;64.60;;;;;;5125922;27;20386;-74
2022/07/10 03:00:57;;;;;;;0.88;0.88;;;22.50;64.70;;;;;;5121317;27;20020;-75
2022/07/10 03:03:23;;;;;;;1.15;0.90;;;22.40;64.80;;;;;;5116306;27;20031;-75
2022/07/10 03:05:48;;;;;;;1.33;1.23;;;22.30;64.90;;;;;;5121265;27;20028;-75
2022/07/10 03:08:14;;;;;;;1.15;1.05;;;22.30;65.30;;;;;;5128136;27;20394;-75
2022/07/10 03:10:40;;;;;;;0.88;0.70;;;22.20;65.60;;;;;;5134662;27;20027;-74
2022/07/10 03:13:06;;;;;;;1.80;1.00;;;22.30;65.50;;;;;;5116647;27;20042;-74
2022/07/10 03:15:32;;;;;;;0.75;0.75;;;22.20;65.60;;;;;;5120648;27;20021;-74
2022/07/10 03:17:58;;;;;;;3.58;0.80;;;22.20;65.60;;;;;;5126089;27;20029;-74
2022/07/10 03:20:24;;;;;;;1.65;1.10;;;22.20;65.70;;;;;;5095436;28;20107;-74
2022/07/10 03:22:51;;;;;;;0.85;0.85;;;22.20;65.80;;;;;;5129476;27;20106;-74
2022/07/10 03:25:16;;;;;;;1.42;1.00;;;22.20;65.70;;;;;;5134340;27;20028;-74
2022/07/10 03:27:42;;;;;;;0.75;0.73;;;22.20;65.90;;;;;;5130302;27;20024;-74
2022/07/10 03:30:09;;;;;;;1.30;0.82;;;22.20;65.70;;;;;;5115344;27;20075;-74
2022/07/10 03:32:35;;;;;;;5.43;1.00;;;22.10;65.90;;;;;;5134187;27;20023;-74
2022/07/10 03:35:01;;;;;;;0.95;0.70;;;22.10;66.00;;;;;;5133800;27;20034;-74
2022/07/10 03:37:27;;;;;;;1.42;0.70;;;22.00;66.00;;;;;;5103962;27;20027;-74
2022/07/10 03:39:53;;;;;;;2.85;1.00;;;22.10;66.20;;;;;;5127953;27;20065;-74
2022/07/10 03:42:18;;;;;;;1.83;0.82;;;22.10;65.90;;;;;;5120191;27;20065;-74
2022/07/10 03:44:44;;;;;;;1.10;1.10;;;22.20;65.80;;;;;;5103396;28;20067;-74
2022/07/10 03:47:10;;;;;;;1.00;0.90;;;22.20;65.60;;;;;;5126824;27;20031;-75
2022/07/10 03:49:38;;;;;;;3.05;1.17;;;22.20;65.40;;;;;;5118335;27;20047;-75
2022/07/10 03:52:04;;;;;;;1.08;0.93;;;22.10;65.50;;;;;;5115430;27;20366;-74
2022/07/10 03:54:30;;;;;;;1.48;0.63;;;22.10;65.40;;;;;;5125505;27;20130;-74
2022/07/10 03:59:42;;;;;;;0.93;0.70;;;22.10;65.20;;;;;;5134022;27;20034;-74
2022/07/10 04:02:08;;;;;;;0.80;0.80;;;22.20;65.10;;;;;;5133363;27;20106;-75
2022/07/10 04:04:34;;;;;;;2.40;1.00;;;22.10;65.30;;;;;;5133650;27;20176;-74
2022/07/10 04:06:59;;;;;;;1.10;1.00;;;22.10;65.50;;;;;;5133829;27;20553;-75
2022/07/10 04:09:25;;;;;;;2.05;1.00;;;22.10;65.30;;;;;;5117458;27;20020;-75
2022/07/10 04:11:51;;;;;;;1.05;1.02;;;22.10;65.50;;;;;;5113141;28;20024;-74
2022/07/10 04:14:17;;;;;;;2.97;1.25;;;22.10;65.60;;;;;;5094721;28;20023;-74
2022/07/10 04:16:43;;;;;;;2.15;1.00;;;22.10;65.60;;;;;;5123492;28;20035;-74
2022/07/10 04:19:08;;;;;;;1.42;0.90;;;22.10;65.70;;;;;;5132708;28;20027;-75
2022/07/10 04:21:34;;;;;;;1.35;1.15;;;22.00;65.50;;;;;;5132460;28;20031;-75
2022/07/10 04:24:00;;;;;;;0.80;0.80;;;22.00;65.50;;;;;;5133703;28;20019;-75
2022/07/10 04:26:26;;;;;;;1.45;1.05;;;22.00;65.60;;;;;;5133431;28;20076;-74
2022/07/10 04:28:52;;;;;;;1.55;0.90;;;22.00;65.40;;;;;;5133625;28;20020;-75
2022/07/10 04:31:17;;;;;;;1.08;0.93;;;22.00;65.40;;;;;;5115033;28;20043;-74
2022/07/10 04:33:43;;;;;;;0.80;0.80;;;22.00;65.40;;;;;;5114045;28;20020;-75
2022/07/10 04:36:09;;;;;;;0.98;0.93;;;22.10;65.50;;;;;;5109402;28;20031;-74
2022/07/10 04:38:35;;;;;;;0.80;0.80;;;22.00;65.40;;;;;;5112857;28;20020;-74
2022/07/10 04:41:00;;;;;;;1.58;1.20;;;22.10;65.40;;;;;;5113971;28;20047;-74
2022/07/10 04:43:27;;;;;;;0.90;0.90;;;22.10;65.20;;;;;;5117442;28;20019;-75
2022/07/10 04:45:52;;;;;;;1.02;1.02;;;22.10;65.40;;;;;;5103669;28;20079;-74
2022/07/10 04:48:18;;;;;;;1.20;1.10;;;22.10;65.60;;;;;;5100376;28;20111;-74
2022/07/10 04:50:44;;;;;;;0.88;0.88;;;22.10;65.90;;;;;;5122749;28;20535;-74
2022/07/10 04:53:09;;;;;;;2.47;1.05;;;22.10;66.10;;;;;;5126519;28;20023;-74
2022/07/10 04:55:35;;;;;;;2.10;0.95;;;22.00;66.10;;;;;;5134507;27;20031;-74
2022/07/10 04:58:01;;;;;;;1.10;1.00;;;22.00;65.80;;;;;;5133918;27;20015;-75
2022/07/10 05:00:26;;;;;;;0.95;0.95;;;22.00;65.80;;;;;;5136950;27;20031;-74
2022/07/10 05:02:52;;;;;;;4.15;0.80;;;22.10;66.10;;;;;;5137294;27;20015;-74
2022/07/10 05:05:18;;;;;;;1.20;0.85;;;22.10;66.10;;;;;;5137341;27;20142;-75
2022/07/10 05:07:44;;;;;;;2.13;0.98;;;22.10;66.10;;;;;;5118675;27;20023;-74
2022/07/10 05:10:09;;;;;;;2.10;1.10;;;22.20;65.80;;;;;;5137157;27;20027;-74
2022/07/10 05:12:35;;;;;;;1.00;1.00;;;22.20;66.10;;;;;;5137092;27;20020;-74
2022/07/10 05:15:01;;;;;;;2.42;0.75;;;22.20;65.90;;;;;;5134877;27;20088;-74
2022/07/10 05:17:31;;;;;;;2.70;0.75;;;22.30;66.10;;;;;;5133954;27;20034;-74
2022/07/10 05:19:57;;;;;;;2.05;0.80;;;22.40;66.20;;;;;;5114334;27;20053;-74
2022/07/10 05:22:24;;;;;;;6.40;1.65;;;22.50;66.00;;;;;;5136868;27;20067;-74
2022/07/10 05:24:50;;;;;;;1.42;0.93;;;22.50;65.60;;;;;;5136752;27;20076;-74
2022/07/10 05:27:19;;;;;;;2.67;1.00;;;22.50;65.40;;;;;;5136604;27;20031;-74
2022/07/10 05:29:46;;;;;;;2.08;0.70;;;22.60;65.30;;;;;;5118200;27;20069;-74
2022/07/10 05:32:12;;;;;;;0.90;0.88;;;22.60;64.80;;;;;;5133229;27;20053;-74
2022/07/10 05:34:38;;;;;;;1.83;0.80;;;22.70;64.90;;;;;;5134489;27;20023;-74
2022/07/10 05:37:04;;;;;;;3.28;1.02;;;22.80;64.90;;;;;;5115974;28;20028;-74
2022/07/10 05:39:30;;;;;;;2.10;1.00;;;22.80;64.50;;;;;;5097444;28;20051;-75
2022/07/10 05:41:57;;;;;;;0.88;0.88;;;22.80;64.00;;;;;;5115760;28;20079;-74
2022/07/10 05:44:23;;;;;;;3.85;0.90;;;22.90;63.80;;;;;;5116144;28;20069;-74
2022/07/10 05:46:49;;;;;;;1.08;0.93;;;23.00;63.40;;;;;;5115769;28;20382;-74
2022/07/10 05:49:15;;;;;;;3.63;0.80;;;23.00;63.40;;;;;;5097512;28;20023;-74
2022/07/10 05:51:42;;;;;;;0.65;0.60;;;23.00;64.00;;;;;;5115762;28;20081;-74
2022/07/10 05:54:08;;;;;;;2.55;0.80;;;23.00;64.20;;;;;;5115913;28;20026;-74
2022/07/10 05:56:34;;;;;;;1.60;1.05;;;23.20;64.10;;;;;;5115550;28;20027;-74
2022/07/10 05:59:00;;;;;;;1.25;0.80;;;23.20;63.80;;;;;;5115459;28;20411;-74
2022/07/10 06:01:26;;;;;;;3.72;0.90;;;23.30;63.40;;;;;;5115674;28;20026;-74
2022/07/10 06:03:52;;;;;;;1.60;0.73;;;23.40;63.20;;;;;;5115506;28;20521;-74
2022/07/10 06:06:18;;;;;;;2.05;0.73;;;23.40;63.80;;;;;;5115390;28;20475;-74
2022/07/10 06:08:44;;;;;;;0.70;0.70;;;23.50;64.50;;;;;;5114687;28;20034;-74
2022/07/10 06:11:11;;;;;;;1.85;0.82;;;23.50;65.30;;;;;;5115232;28;20094;-75
2022/07/10 06:13:37;;;;;;;0.90;0.80;;;23.60;65.50;;;;;;5120342;27;20019;-75
2022/07/10 06:16:04;;;;;;;1.15;1.00;;;23.60;65.80;;;;;;5135908;27;20033;-74
2022/07/10 06:18:31;;;;;;;3.83;1.15;;;23.70;65.30;;;;;;5135793;27;20111;-74
2022/07/10 06:20:57;;;;;;;2.40;1.05;;;23.80;66.80;;;;;;5135576;27;20023;-74
2022/07/10 06:23:23;;;;;;;0.90;0.90;;;23.90;67.90;;;;;;5116977;27;20386;-75
2022/07/10 06:25:49;;;;;;;1.20;1.10;;;23.90;65.60;;;;;;5135592;27;20118;-75
2022/07/10 06:28:16;;;;;;;0.95;0.95;;;24.00;65.90;;;;;;5116810;27;20015;-74
2022/07/10 06:30:42;;;;;;;2.70;0.70;;;24.10;64.00;;;;;;5135616;27;20024;-75
2022/07/10 06:33:08;;;;;;;0.93;0.93;;;24.10;64.40;;;;;;5135719;27;20477;-75
2022/07/10 06:35:34;;;;;;;0.85;0.85;;;24.20;63.40;;;;;;5135595;27;20023;-74
2022/07/10 06:37:59;;;;;;;1.45;0.60;;;24.20;64.60;;;;;;5135252;27;20148;-74
2022/07/10 06:40:26;;;;;;;1.17;0.82;;;24.20;65.00;;;;;;5135197;27;20058;-74
2022/07/10 06:42:51;;;;;;;1.48;0.90;;;24.30;65.10;;;;;;5116665;27;20145;-75
2022/07/10 06:45:17;;;;;;;2.67;1.15;;;24.40;64.90;;;;;;5135293;27;20611;-75
2022/07/10 06:48:01;;;;;;;0.63;0.63;;;24.50;64.70;;;;;;5135055;27;20023;-74
2022/07/10 06:50:30;;;;;;;1.38;0.88;;;24.60;64.70;;;;;;5135275;27;20366;-74
2022/07/10 06:52:56;;;;;;;0.82;0.82;;;24.60;63.20;;;;;;5116789;27;20026;-76
2022/07/10 06:55:24;;;;;;;0.98;0.80;;;24.70;62.90;;;;;;5116458;27;20038;-75
2022/07/10 06:57:49;;;;;;;1.05;0.90;;;24.80;61.10;;;;;;5135081;27;20042;-75
2022/07/10 07:00:15;;;;;;;0.85;0.73;;;24.90;62.10;;;;;;5134821;27;20486;-75
2022/07/10 07:02:41;;;;;;;1.83;1.30;;;25.00;61.10;;;;;;5134978;27;20076;-75
2022/07/10 07:05:07;;;;;;;2.92;1.15;;;25.00;63.10;;;;;;5134821;27;20026;-75
2022/07/10 07:07:33;;;;;;;0.80;0.80;;;25.00;62.90;;;;;;5134696;27;20027;-74
2022/07/10 07:09:59;;;;;;;0.90;0.90;;;25.10;62.30;;;;;;5134619;27;20064;-75
2022/07/10 07:12:25;;;;;;;1.95;0.90;;;25.10;58.40;;;;;;5134972;27;20027;-74
2022/07/10 07:14:51;;;;;;;1.02;1.02;;;25.20;58.80;;;;;;5119108;27;20087;-75
2022/07/10 07:17:24;;;;;;;0.77;0.70;;;25.30;58.90;;;;;;5114359;28;20563;-75
2022/07/10 07:25:24;;;;;;;1.67;0.60;;;25.50;53.70;;;;;;5114512;28;20088;-76
2022/07/10 07:27:49;;;;;;;0.93;0.90;;;25.50;53.70;;;;;;5113776;28;20020;-75
2022/07/10 07:30:15;;;;;;;1.00;0.55;;;25.60;47.50;;;;;;5113701;28;20027;-75
2022/07/10 07:32:42;;;;;;;2.35;0.55;;;25.60;48.60;;;;;;5132187;27;20023;-74
2022/07/10 07:35:09;;;;;;;1.55;0.90;;;25.70;48.80;;;;;;5132057;27;20019;-75
2022/07/10 07:37:43;;;;;;;0.50;0.50;;;25.80;47.10;;;;;;5113537;28;20023;-74
2022/07/10 07:40:11;;;;;;;0.88;0.45;;;25.80;46.60;;;;;;5113872;28;20016;-74
2022/07/10 07:42:37;;;;;;;0.60;0.60;;;25.80;46.10;;;;;;5113557;28;20047;-74
2022/07/10 07:45:04;;;;;;;5.38;0.60;;;25.90;45.80;;;;;;5113655;28;20024;-74
2022/07/10 07:47:31;;;;;;;0.50;0.50;;;25.90;46.90;;;;;;5113397;28;20084;-75
2022/07/10 07:49:57;;;;;;;1.02;0.70;;;26.00;46.40;;;;;;5113624;28;20019;-74
2022/07/10 07:52:23;;;;;;;0.90;0.50;;;26.10;46.40;;;;;;5095332;28;20523;-75
2022/07/10 07:54:50;;;;;;;1.17;0.60;;;26.10;45.30;;;;;;5113567;28;20419;-75
2022/07/10 07:57:16;;;;;;;0.40;0.40;;;26.20;45.80;;;;;;5113315;28;20023;-75
2022/07/10 07:59:43;;;;;;;0.50;0.50;;;26.20;45.00;;;;;;5113183;28;20179;-75
2022/07/10 08:02:09;;;;;;;0.75;0.50;;;26.30;43.40;;;;;;5113336;28;20505;-75
2022/07/10 08:04:34;;;;;;;4.50;0.65;;;26.20;44.50;;;;;;5094947;28;20485;-74
2022/07/10 08:07:02;;;;;;;3.15;1.25;;;26.30;45.70;;;;;;5113256;28;20059;-74
2022/07/10 08:09:27;;;;;;;0.60;0.60;;;26.30;45.80;;;;;;5113161;28;20016;-74
2022/07/10 08:11:53;;;;;;;0.90;0.50;;;26.30;46.50;;;;;;5094741;28;20084;-74
2022/07/10 08:14:19;;;;;;;0.63;0.63;;;26.40;46.20;;;;;;5124026;28;20022;-74
2022/07/10 08:16:45;;;;;;;0.75;0.75;;;26.40;46.30;;;;;;5133654;28;20038;-75
2022/07/10 08:19:10;;;;;;;0.93;0.80;;;26.50;45.90;;;;;;5133720;28;20390;-74
2022/07/10 08:21:36;;;;;;;0.80;0.80;;;26.50;46.30;;;;;;5133694;28;20031;-74
2022/07/10 08:24:02;;;;;;;0.95;0.60;;;26.50;46.40;;;;;;5133679;28;20461;-74
2022/07/10 08:26:28;;;;;;;0.60;0.60;;;26.60;45.40;;;;;;5133563;28;20032;-75
2022/07/10 08:28:53;;;;;;;0.70;0.50;;;26.60;45.30;;;;;;5133636;28;20016;-74
2022/07/10 08:31:22;;;;;;;2.03;0.70;;;26.60;45.60;;;;;;5136080;27;20027;-75
2022/07/10 08:33:48;;;;;;;0.68;0.68;;;26.60;45.60;;;;;;5137639;27;20103;-75
2022/07/10 08:36:14;;;;;;;0.60;0.60;;;26.60;44.50;;;;;;5137939;27;20060;-74
2022/07/10 08:38:40;;;;;;;1.13;0.50;;;26.70;44.20;;;;;;5137794;27;20102;-75
2022/07/10 08:41:06;;;;;;;0.70;0.68;;;26.80;44.00;;;;;;5137131;27;20477;-75
2022/07/10 08:43:32;;;;;;;1.35;0.45;;;26.80;43.90;;;;;;5136982;27;20555;-75
2022/07/10 08:45:59;;;;;;;0.45;0.45;;;26.90;43.70;;;;;;5137035;27;20023;-75
2022/07/10 08:48:25;;;;;;;0.63;0.50;;;27.00;44.30;;;;;;5136739;27;20027;-75
2022/07/10 08:50:55;;;;;;;2.40;0.50;;;27.00;42.00;;;;;;5137195;27;20015;-75
2022/07/10 08:53:32;;;;;;;2.13;0.85;;;27.00;41.80;;;;;;5136868;27;20099;-75
2022/07/10 08:55:59;;;;;;;1.63;0.55;;;27.00;41.70;;;;;;5136938;27;20608;-75
2022/07/10 08:58:26;;;;;;;0.30;0.30;;;27.00;41.80;;;;;;5117886;27;20023;-75
2022/07/10 09:00:53;;;;;;;0.60;0.60;;;27.10;42.70;;;;;;5136794;27;20026;-75
2022/07/10 09:03:19;;;;;;;0.60;0.60;;;27.20;42.80;;;;;;5118299;27;20019;-75
2022/07/10 09:05:45;;;;;;;0.80;0.30;;;27.20;42.60;;;;;;5136362;27;20065;-75
2022/07/10 09:08:28;;;;;;;0.75;0.73;;;27.30;42.60;;;;;;5136505;27;20098;-74
2022/07/10 09:11:18;;;;;;;1.10;0.60;;;27.30;42.80;;;;;;5137079;27;20045;-75
2022/07/10 09:13:54;;;;;;;2.75;0.82;;;27.40;42.70;;;;;;5137149;27;20016;-75
2022/07/10 09:16:40;;;;;;;0.60;0.57;;;27.50;41.50;;;;;;5137359;27;20109;-75
2022/07/10 09:19:23;;;;;;;0.50;0.50;;;27.40;42.00;;;;;;5136929;27;20060;-75
2022/07/10 09:22:06;;;;;;;1.02;0.50;;;27.50;42.30;;;;;;5137115;27;20512;-74
2022/07/10 09:24:37;;;;;;;0.35;0.35;;;27.60;43.10;;;;;;5137054;27;20477;-75
2022/07/10 09:27:03;;;;;;;0.77;0.77;;;27.60;42.10;;;;;;5136650;27;20033;-75
2022/07/10 09:29:30;;;;;;;2.22;0.65;;;27.60;42.80;;;;;;5135445;27;20019;-76
2022/07/10 09:31:58;;;;;;;0.50;0.40;;;27.70;41.50;;;;;;5136714;27;20023;-75
2022/07/10 09:34:40;;;;;;;0.40;0.40;;;27.60;41.30;;;;;;5136586;27;20023;-74
2022/07/10 09:37:21;;;;;;;0.45;0.45;;;27.80;42.80;;;;;;5136484;27;20057;-75
2022/07/10 09:40:00;;;;;;;1.38;0.60;;;27.80;41.90;;;;;;5136490;27;20033;-75
2022/07/10 09:42:30;;;;;;;0.98;0.63;;;27.80;42.60;;;;;;5115964;27;20144;-75
2022/07/10 09:45:17;;;;;;;0.57;0.57;;;27.80;42.10;;;;;;5119965;27;20354;-75
2022/07/10 09:47:58;;;;;;;0.77;0.77;;;27.90;42.60;;;;;;5115551;28;20019;-75
2022/07/10 09:50:30;;;;;;;0.98;0.65;;;27.90;42.00;;;;;;5115566;28;20107;-75
2022/07/10 09:52:59;;;;;;;5.25;0.88;;;27.90;41.90;;;;;;5115613;28;20016;-74
2022/07/10 09:55:29;;;;;;;1.75;0.70;;;27.90;42.80;;;;;;5115939;28;20023;-75
2022/07/10 09:58:09;;;;;;;1.52;0.80;;;27.90;42.50;;;;;;5115685;28;20528;-75
2022/07/10 10:00:45;;;;;;;2.17;0.65;;;27.90;42.20;;;;;;5097085;28;20073;-75
2022/07/10 10:03:14;;;;;;;0.98;0.70;;;28.00;42.40;;;;;;5097355;28;20387;-75
2022/07/10 10:06:16;;;;;;;1.67;0.82;;;28.00;42.70;;;;;;5115425;28;20593;-75
2022/07/10 10:08:41;;;;;;;1.65;0.75;;;28.10;43.10;;;;;;5089271;28;20059;-75
2022/07/10 10:11:12;;;;;;;0.80;0.80;;;28.20;43.60;;;;;;5096916;28;20020;-75
2022/07/10 10:13:38;;;;;;;0.63;0.63;;;28.20;44.20;;;;;;5120251;27;20033;-75
2022/07/10 10:16:09;;;;;;;0.80;0.80;;;28.40;44.00;;;;;;5135984;27;20366;-75
2022/07/10 10:20:36;;;;;;;0.77;0.77;;;28.40;44.60;;;;;;5135846;27;20385;-75
2022/07/10 10:21:23;;;;;;;2.53;0.80;;;28.40;43.50;;;;;;5135873;27;20489;-74
2022/07/10 10:23:49;;;;;;;0.70;0.70;;;28.50;45.50;;;;;;5135550;27;20082;-75
2022/07/10 10:26:16;;;;;;;1.13;0.68;;;28.60;46.10;;;;;;5135611;27;20038;-75
2022/07/10 10:28:42;;;;;;;0.60;0.60;;;28.80;46.80;;;;;;5135432;27;20029;-74
2022/07/10 10:31:10;;;;;;;0.52;0.52;;;28.90;46.30;;;;;;5117087;27;20417;-74
2022/07/10 10:33:37;;;;;;;0.85;0.85;;;29.00;46.30;;;;;;5135623;27;20015;-75
2022/07/10 10:36:05;;;;;;;2.10;0.85;;;29.10;45.90;;;;;;5135440;27;20015;-75
2022/07/10 10:38:58;;;;;;;1.10;0.93;;;29.10;45.30;;;;;;5135449;27;20022;-75
2022/07/10 10:41:30;;;;;;;0.80;0.70;;;29.10;46.00;;;;;;5135059;27;20039;-75
2022/07/10 10:44:09;;;;;;;1.08;0.90;;;29.20;44.30;;;;;;5117038;27;20027;-75
2022/07/10 10:46:36;;;;;;;2.22;0.93;;;29.20;43.70;;;;;;5135108;27;20023;-75
2022/07/10 10:49:08;;;;;;;2.72;0.95;;;29.20;45.60;;;;;;5135292;27;20030;-75
2022/07/10 10:51:58;;;;;;;4.28;0.95;;;29.40;45.80;;;;;;5135172;27;20028;-75
2022/07/10 10:54:25;;;;;;;2.22;1.02;;;29.50;45.40;;;;;;5134822;27;20019;-75
2022/07/10 10:57:16;;;;;;;1.00;0.90;;;29.60;45.80;;;;;;5135235;27;20038;-75
2022/07/10 10:59:50;;;;;;;2.00;1.02;;;29.80;44.30;;;;;;5116476;27;20031;-75
2022/07/10 11:02:24;;;;;;;1.17;1.08;;;29.80;43.90;;;;;;5135006;27;20056;-74
2022/07/10 11:04:50;;;;;;;0.65;0.65;;;29.90;44.20;;;;;;5134988;27;20062;-75
2022/07/10 11:07:54;;;;;;;1.33;1.17;;;30.00;45.10;;;;;;5116486;27;20068;-76
2022/07/10 11:10:41;;;;;;;1.65;0.90;;;30.10;44.00;;;;;;5134731;27;20102;-75
2022/07/10 11:13:13;;;;;;;7.28;1.13;;;30.00;43.80;;;;;;5134511;27;20023;-74
2022/07/10 11:15:44;;;;;;;1.70;1.10;;;30.10;44.30;;;;;;5134867;27;20466;-75
2022/07/10 11:18:12;;;;;;;1.70;0.87;;;30.20;43.60;;;;;;5134602;27;20027;-75
2022/07/10 11:20:46;;;;;;;1.58;0.90;;;30.10;42.60;;;;;;5116077;27;20053;-75
2022/07/10 11:23:11;;;;;;;0.77;0.68;;;30.20;44.80;;;;;;5134435;27;20031;-75
2022/07/10 11:28:59;;;;;;;0.80;0.80;;;30.30;42.90;;;;;;5112196;27;20031;-75
2022/07/10 11:31:27;;;;;;;1.25;1.13;;;30.40;44.20;;;;;;5134517;27;20011;-75
2022/07/10 11:33:55;;;;;;;2.85;0.77;;;30.40;43.90;;;;;;5134422;27;20102;-74
2022/07/10 11:36:25;;;;;;;1.02;0.90;;;30.60;45.30;;;;;;5129092;27;20101;-74
2022/07/10 11:39:12;;;;;;;3.20;0.90;;;30.60;44.80;;;;;;5126700;27;20027;-75
2022/07/10 11:41:45;;;;;;;1.40;0.80;;;30.80;42.90;;;;;;5116003;27;20338;-75
2022/07/10 11:44:16;;;;;;;3.38;0.90;;;30.80;43.50;;;;;;5123523;27;20082;-75
2022/07/10 11:46:44;;;;;;;3.47;1.17;;;30.90;43.40;;;;;;5133923;27;20038;-75
2022/07/10 11:49:10;;;;;;;1.40;0.70;;;31.10;43.90;;;;;;5133802;27;20012;-74
2022/07/10 11:51:39;;;;;;;1.80;0.82;;;31.20;42.90;;;;;;5134063;27;20024;-74
2022/07/10 11:54:17;;;;;;;1.10;1.10;;;31.30;42.60;;;;;;5130324;27;20475;-75
2022/07/10 11:56:53;;;;;;;1.35;0.90;;;31.40;40.80;;;;;;5123795;27;20011;-74
2022/07/10 11:59:24;;;;;;;2.38;0.88;;;31.50;41.00;;;;;;5126722;27;20075;-75
2022/07/10 12:01:52;;;;;;;1.00;0.77;;;31.50;39.00;;;;;;5118899;27;20498;-75
2022/07/10 12:04:26;;;;;;;0.60;0.60;;;31.50;38.90;;;;;;5121129;27;20046;-75
2022/07/10 12:27:41;;;;;;;2.60;1.00;;;32.10;39.30;;;;;;5058266;25;20052;-74
2022/07/10 12:30:07;;;;;;;0.82;0.70;;;32.20;39.80;;;;;;5092347;28;20070;-74
2022/07/10 12:32:33;;;;;;;1.15;1.00;;;32.20;39.50;;;;;;5074645;28;20063;-75
2022/07/10 12:34:59;;;;;;;0.68;0.68;;;32.20;39.40;;;;;;5092817;28;20020;-75
2022/07/10 12:37:24;;;;;;;1.05;0.70;;;32.40;40.50;;;;;;5092526;28;20027;-74
2022/07/10 12:39:56;;;;;;;2.75;0.85;;;32.70;37.70;;;;;;5092533;28;20482;-74
2022/07/10 12:42:29;;;;;;;1.13;0.77;;;32.70;36.30;;;;;;5092785;28;20624;-74
2022/07/10 12:45:08;;;;;;;0.60;0.60;;;32.70;36.70;;;;;;5074494;28;20663;-75
2022/07/10 12:47:47;;;;;;;1.35;0.75;;;32.60;36.10;;;;;;5074427;28;20024;-74
2022/07/10 12:50:13;;;;;;;0.75;0.75;;;32.60;36.70;;;;;;5092369;28;20020;-74
2022/07/10 12:52:39;;;;;;;2.58;0.93;;;32.70;37.30;;;;;;5072499;28;20412;-74
2022/07/10 12:55:21;;;;;;;2.22;0.90;;;33.00;38.40;;;;;;5083075;28;20069;-74
2022/07/10 12:57:54;;;;;;;0.80;0.80;;;33.00;38.30;;;;;;5085523;28;20093;-74
2022/07/10 13:00:30;;;;;;;1.65;0.95;;;33.20;38.30;;;;;;5074071;28;20535;-74
2022/07/10 13:03:07;;;;;;;1.58;0.88;;;33.30;37.20;;;;;;5069916;28;20069;-74
2022/07/10 13:05:38;;;;;;;1.25;0.93;;;33.50;38.10;;;;;;5057028;28;20028;-74
2022/07/10 13:08:28;;;;;;;0.82;0.60;;;33.80;37.80;;;;;;5076255;28;20029;-75
2022/07/10 13:11:00;;;;;;;1.48;1.00;;;33.80;36.60;;;;;;5069086;28;20099;-74
2022/07/10 13:13:26;;;;;;;1.00;0.90;;;34.00;36.40;;;;;;5083086;28;20024;-75
2022/07/10 13:15:56;;;;;;;0.75;0.75;;;33.80;36.50;;;;;;5086084;28;20490;-75
2022/07/10 13:18:24;;;;;;;0.90;0.90;;;33.80;36.00;;;;;;5077260;28;20040;-75
2022/07/10 13:20:51;;;;;;;1.85;1.02;;;33.70;35.60;;;;;;5069428;28;20378;-75
2022/07/10 13:23:24;;;;;;;2.55;1.00;;;33.60;35.70;;;;;;5072363;28;20052;-74
2022/07/10 13:25:51;;;;;;;0.70;0.70;;;33.60;35.00;;;;;;5078898;28;20036;-75